Bookmark and Share
Track history (hours):
 

Jpo Gemini

Last reported at 2014-Apr-16 01:00 UTC. Time now 2014-Apr-17 03:53 UTC.
Position N 31°30' W 010°42'.

Length 207 m; draft 10.9 m.

Type: Cargo ship. MMSI: 636091995.

Wind from 050 at 10 knots

Waves 2.0 meters (7 feet), 14 second period

Barometer 1019.0 mb
Air temperature 18.0 ° C
Visibility: greater than 27.0 NM
Dewpoint 13.9 ° C
Water temperature 19.0 ° C

NotesDate/timePositionNaut miles runAvg speedWind from/ knotsBaromVisibWave heightAir tempDewpointWater temp
2014-Apr-16 01:00N 31°30' W 010°42'36215.4 050 / 101019.027.0 2.018.013.919.0
2014-Apr-15 01:33N 35°56' W 005°47'1515.3
2014-Apr-15 00:34N 35°59' W 005°29'9 9.3
2014-Apr-14 23:34N 36°07' W 005°24'2 2.0
2014-Apr-14 22:34N 36°09' W 005°26'0 0.0
2014-Apr-14 21:31N 36°09' W 005°26'0 0.0
2014-Apr-14 20:31N 36°09' W 005°26'0 0.0
2014-Apr-14 19:31N 36°09' W 005°26'0 0.0
2014-Apr-14 18:31N 36°09' W 005°26'0 0.0
2014-Apr-14 17:31N 36°09' W 005°26'0 0.0
2014-Apr-14 16:31N 36°09' W 005°26'0 0.0
2014-Apr-14 14:31N 36°09' W 005°26'0 0.0
2014-Apr-14 13:31N 36°09' W 005°26'0 0.0
2014-Apr-14 11:31N 36°09' W 005°26'0 0.0
2014-Apr-14 10:31N 36°09' W 005°26'1 0.7
2014-Apr-14 09:33N 36°09' W 005°25'7 6.8
2014-Apr-14 08:33N 36°05' W 005°18'1110.8
2014-Apr-14 07:33N 36°13' W 005°09'1 1.0
2014-Apr-14 06:33N 36°12' W 005°08'1 0.8
2014-Apr-14 05:33N 36°12' W 005°07'26 1.2
2014-Apr-13 08:25N 35°54' W 005°30'3 3.3
2014-Apr-13 07:21N 35°57' W 005°32'911.4
2014-Apr-13 06:33N 36°00' W 005°21'1212.1
2014-Apr-13 05:33N 36°05' W 005°08'10 0.3
2014-Apr-12 00:19N 36°11' W 004°58'810.9
2014-Apr-11 23:33N 36°06' W 005°06'1211.6
2014-Apr-11 22:33N 35°60' W 005°18'1514.1
2014-Apr-11 21:28N 35°55' W 005°36'1212.8
2014-Apr-11 20:33N 35°52' W 005°50'194 9.7
2014-Apr-11 00:33N 33°40' W 008°44'10 9.8
2014-Apr-10 23:33N 33°33' W 008°51'10 9.7
2014-Apr-10 22:33N 33°25' W 008°59'9 9.4
2014-Apr-10 21:33N 33°18' W 009°06'9 9.4
2014-Apr-10 20:33N 33°11' W 009°13'9 9.3
2014-Apr-10 19:33N 33°04' W 009°20'9 9.3
2014-Apr-10 18:33N 32°57' W 009°28'9 9.5
2014-Apr-10 17:34N 32°49' W 009°35'813.3
2014-Apr-10 17:00N 32°42' W 009°36'511.7 050 / 161014.0 1.1 3.018.515.319.0
2014-Apr-10 16:33N 32°43' W 009°42'9 9.3
2014-Apr-10 15:34N 32°36' W 009°49'9 9.3
2014-Apr-10 14:33N 32°28' W 009°57'9 9.2
2014-Apr-10 13:33N 32°21' W 010°03'194 9.4
2014-Apr-09 17:00N 29°42' W 012°12'231 9.6 360 / 151014.510.8 1.518.715.219.5
2014-Apr-08 17:00N 26°36' W 014°48'465 9.3 340 / 161014.527.0 2.519.015.020.0
2014-Apr-06 15:00N 19°24' W 017°54'   360 / 171017.027.0 2.518.514.519.0

Dump ship's entire track history

sailing weather and tide predictions

Jpo Gemini — A8VF7 — position and weather